createdAt,value
2023-12-19T00:04:34.872Z,98921.34
2023-12-19T00:09:36.910Z,98916.41
2023-12-19T00:14:39.520Z,98913.66
2023-12-19T00:19:42.139Z,98901.34
2023-12-19T00:24:44.371Z,98891.50
2023-12-19T00:29:46.437Z,98885.72
2023-12-19T00:34:48.707Z,98879.63
2023-12-19T00:39:50.935Z,98892.31
2023-12-19T00:44:53.326Z,98890.38
2023-12-19T00:49:56.230Z,98905.97
2023-12-19T00:54:58.444Z,98892.16
2023-12-19T01:00:01.269Z,98892.97
2023-12-19T01:05:04.113Z,98900.78
2023-12-19T01:10:06.734Z,98891.88
2023-12-19T01:15:09.544Z,98884.44
2023-12-19T01:20:11.736Z,98893.72
2023-12-19T01:25:13.698Z,98885.78
2023-12-19T01:30:15.963Z,98889.03
2023-12-19T01:35:18.389Z,98879.31
2023-12-19T01:40:20.994Z,98874.13
2023-12-19T01:45:26.713Z,98885.03
2023-12-19T01:50:30.617Z,98886.97
2023-12-19T01:55:32.861Z,98879.78
2023-12-19T02:00:37.758Z,98880.06
2023-12-19T02:05:42.706Z,98870.44
2023-12-19T02:10:44.981Z,98866.66
2023-12-19T02:15:49.513Z,98871.19
2023-12-19T02:20:51.863Z,98863.03
2023-12-19T02:25:54.656Z,98879.72
2023-12-19T02:30:56.834Z,98882.59
2023-12-19T02:35:58.835Z,98883.03
2023-12-19T02:41:00.810Z,98866.94
2023-12-19T02:46:03.154Z,98869.16
2023-12-19T02:51:05.367Z,98854.72
2023-12-19T02:56:07.730Z,98843.94
2023-12-19T03:01:10.273Z,98852.19
2023-12-19T03:06:16.442Z,98851.69
2023-12-19T03:11:18.924Z,98845.97
2023-12-19T03:16:21.141Z,98833.97
2023-12-19T03:21:23.715Z,98840.25
2023-12-19T03:26:25.636Z,98849.97
2023-12-19T03:31:27.826Z,98853.69
2023-12-19T03:36:32.888Z,98859.81
2023-12-19T03:41:34.935Z,98852.19
2023-12-19T03:46:37.025Z,98838.41
2023-12-19T03:51:39.155Z,98814.50
2023-12-19T03:56:42.496Z,98815.47
2023-12-19T04:01:46.331Z,98802.66
2023-12-19T04:06:48.490Z,98803.91
2023-12-19T04:11:51.076Z,98796.28
2023-12-19T04:16:53.472Z,98791.91
2023-12-19T04:21:58.060Z,98784.78
2023-12-19T04:27:00.194Z,98786.28
2023-12-19T04:32:02.254Z,98775.91
2023-12-19T04:37:04.740Z,98780.94
2023-12-19T04:42:10.037Z,98773.00
2023-12-19T04:47:12.222Z,98775.50
2023-12-19T04:52:14.333Z,98782.16
2023-12-19T04:57:16.586Z,98766.31
2023-12-19T05:02:18.781Z,98742.66
2023-12-19T05:07:21.176Z,98738.44
2023-12-19T05:12:24.662Z,98739.41
2023-12-19T05:17:26.690Z,98743.25
2023-12-19T05:22:30.224Z,98753.94
2023-12-19T05:27:32.329Z,98782.06
2023-12-19T05:32:34.431Z,98769.66
2023-12-19T05:37:36.859Z,98762.47
2023-12-19T05:42:39.107Z,98759.81
2023-12-19T05:47:41.168Z,98742.75
2023-12-19T05:52:43.525Z,98755.19
2023-12-19T05:57:50.456Z,98761.34
2023-12-19T06:02:55.995Z,98782.50
2023-12-19T06:08:02.230Z,98781.31
2023-12-19T06:13:06.456Z,98781.91
2023-12-19T06:18:09.210Z,98778.91
2023-12-19T06:23:11.487Z,98773.06
2023-12-19T06:28:16.354Z,98775.81
2023-12-19T06:33:18.690Z,98789.19
2023-12-19T06:38:21.117Z,98791.38
2023-12-19T06:43:23.180Z,98786.50
2023-12-19T06:48:25.201Z,98776.94
2023-12-19T06:53:27.203Z,98763.19
2023-12-19T06:58:29.523Z,98751.84
2023-12-19T07:03:31.587Z,98758.97
2023-12-19T07:08:40.631Z,98755.69
2023-12-19T07:13:48.818Z,98760.06
2023-12-19T07:18:52.291Z,98753.41
2023-12-19T07:23:55.943Z,98745.75
2023-12-19T07:29:00.296Z,98744.94
2023-12-19T07:34:08.374Z,98738.94
2023-12-19T07:39:13.896Z,98723.41
2023-12-19T07:44:17.784Z,98721.78
2023-12-19T07:49:20.539Z,98718.66
2023-12-19T07:54:22.860Z,98711.03
2023-12-19T07:59:24.902Z,98707.47
2023-12-19T08:04:27.057Z,98690.03
2023-12-19T08:09:30.838Z,98698.47
2023-12-19T08:14:34.337Z,98675.81
2023-12-19T08:19:39.301Z,98642.53
2023-12-19T08:24:41.478Z,98625.88
2023-12-19T08:29:45.684Z,98625.59
2023-12-19T08:34:47.818Z,98633.22
2023-12-19T08:39:55.972Z,98635.66
2023-12-19T08:44:58.244Z,98637.28
2023-12-19T08:50:02.616Z,98627.75
2023-12-19T08:55:09.523Z,98613.81
2023-12-19T09:00:21.607Z,98621.16
2023-12-19T09:05:23.878Z,98607.38
2023-12-19T09:10:26.206Z,98592.38
2023-12-19T09:15:28.370Z,98590.94
2023-12-19T09:20:31.545Z,98600.72
2023-12-19T09:25:33.894Z,98603.84
2023-12-19T09:30:36.548Z,98587.97
2023-12-19T09:35:39.013Z,98590.28
2023-12-19T09:40:41.639Z,98592.25
2023-12-19T09:45:45.351Z,98589.75
2023-12-19T09:50:48.386Z,98568.75
2023-12-19T09:55:50.755Z,98556.53
2023-12-19T10:00:54.623Z,98565.03
2023-12-19T10:05:59.753Z,98535.88
2023-12-19T10:11:01.685Z,98530.69
2023-12-19T10:16:30.324Z,98518.03
2023-12-19T10:21:33.989Z,98526.78
2023-12-19T10:26:36.471Z,98524.31
2023-12-19T10:31:40.002Z,98510.56
2023-12-19T10:36:41.997Z,98485.88
2023-12-19T10:41:43.948Z,98486.19
2023-12-19T10:46:47.093Z,98482.63
2023-12-19T10:51:55.615Z,98485.88
2023-12-19T10:57:12.816Z,98476.16
2023-12-19T11:02:36.636Z,98476.16
2023-12-19T11:07:42.468Z,98478.09
2023-12-19T11:12:46.942Z,98473.72
2023-12-19T11:17:49.309Z,98459.78
2023-12-19T11:23:47.626Z,98426.91
2023-12-19T11:28:49.641Z,98426.25
2023-12-19T11:33:51.914Z,98414.25
2023-12-19T11:39:23.187Z,98396.41
2023-12-19T11:44:35.156Z,98381.81
2023-12-19T11:49:39.094Z,98359.13
2023-12-19T11:54:43.415Z,98348.94
2023-12-19T11:59:50.946Z,98347.47
2023-12-19T12:05:20.157Z,98337.56
2023-12-19T12:10:24.539Z,98323.31
2023-12-19T12:15:27.496Z,98314.56
2023-12-19T12:20:33.721Z,98311.16
2023-12-19T12:25:36.009Z,98310.50
2023-12-19T12:30:40.030Z,98291.69
2023-12-19T12:35:42.218Z,98291.22
2023-12-19T12:41:11.423Z,98289.09
2023-12-19T12:46:15.700Z,98291.38
2023-12-19T12:51:18.480Z,98286.66
2023-12-19T12:56:20.460Z,98281.97
2023-12-19T13:01:22.521Z,98269.63
2023-12-19T13:06:26.137Z,98250.16
2023-12-19T13:11:28.296Z,98241.22
2023-12-19T13:16:30.274Z,98234.25
2023-12-19T13:21:33.628Z,98239.44
2023-12-19T13:26:35.622Z,98229.69
2023-12-19T13:31:39.097Z,98220.28
2023-12-19T13:36:44.668Z,98220.13
2023-12-19T13:41:46.713Z,98218.16
2023-12-19T13:46:49.570Z,98216.38
2023-12-19T13:51:51.511Z,98231.97
2023-12-19T13:56:53.423Z,98231.97
2023-12-19T14:01:55.620Z,98232.94
2023-12-19T14:06:58.063Z,98218.66
2023-12-19T14:12:00.046Z,98205.22
2023-12-19T14:17:01.983Z,98195.00
2023-12-19T14:27:08.709Z,98181.84
2023-12-19T14:32:10.742Z,98192.06
2023-12-19T14:37:13.961Z,98176.31
2023-12-19T14:42:15.981Z,98186.72
2023-12-19T14:47:18.012Z,98188.66
2023-12-19T14:52:21.171Z,98194.66
2023-12-19T14:57:26.570Z,98192.41
2023-12-19T15:02:30.708Z,98193.38
2023-12-19T15:07:32.713Z,98177.00
2023-12-19T15:12:34.805Z,98171.97
2023-12-19T15:17:37.040Z,98159.16
2023-12-19T15:22:39.154Z,98166.13
2023-12-19T15:27:41.277Z,98173.28
2023-12-19T15:32:43.405Z,98157.88
2023-12-19T15:37:45.536Z,98149.59
2023-12-19T15:42:48.236Z,98136.78
2023-12-19T15:47:50.253Z,98119.75
2023-12-19T15:52:52.308Z,98126.25
2023-12-19T15:57:55.878Z,98123.34
2023-12-19T16:03:01.217Z,98131.63
2023-12-19T16:08:04.444Z,98120.78
2023-12-19T16:13:07.051Z,98124.69
2023-12-19T16:18:09.158Z,98118.03
2023-12-19T16:23:11.141Z,98108.16
2023-12-19T16:28:13.121Z,98107.88
2023-12-19T16:33:15.211Z,98099.13
2023-12-19T16:38:17.303Z,98098.34
2023-12-19T16:43:23.412Z,98093.94
2023-12-19T16:48:25.499Z,98091.03
2023-12-19T16:53:27.897Z,98090.38
2023-12-19T16:58:39.823Z,98081.94
2023-12-19T17:03:45.970Z,98082.94
2023-12-19T17:08:48.916Z,98075.47
2023-12-19T17:13:50.898Z,98062.03
2023-12-19T17:18:52.954Z,98053.94
2023-12-19T17:23:55.028Z,98046.31
2023-12-19T17:28:57.249Z,98048.28
2023-12-19T17:33:59.698Z,98039.84
2023-12-19T17:39:02.121Z,98047.78
2023-12-19T17:44:04.215Z,98047.78
2023-12-19T17:49:06.314Z,98051.50
2023-12-19T17:54:08.539Z,98047.63
2023-12-19T17:59:11.248Z,98037.59
2023-12-19T18:04:14.235Z,98026.75
2023-12-19T18:09:16.321Z,98030.31
2023-12-19T18:14:18.224Z,98019.78
2023-12-19T18:19:20.992Z,98016.53
2023-12-19T18:24:23.321Z,98011.03
2023-12-19T18:29:26.033Z,98011.53
2023-12-19T18:34:28.135Z,98000.66
2023-12-19T18:39:32.347Z,98000.19
2023-12-19T18:44:37.922Z,97987.72
2023-12-19T18:49:39.973Z,97983.19
2023-12-19T18:54:41.989Z,97973.47
2023-12-19T18:59:44.918Z,97975.75
2023-12-19T19:04:48.432Z,97970.41
2023-12-19T19:09:52.510Z,97958.25
2023-12-19T19:14:54.676Z,97959.53
2023-12-19T19:20:02.692Z,97954.84
2023-12-19T19:25:05.337Z,97958.72
2023-12-19T19:30:08.482Z,97947.56
2023-12-19T19:35:10.552Z,97949.50
2023-12-19T19:40:12.752Z,97945.44
2023-12-19T19:45:15.071Z,97939.47
2023-12-19T19:50:17.904Z,97933.00
2023-12-19T19:55:22.716Z,97921.50
2023-12-19T20:00:26.067Z,97930.22
2023-12-19T20:05:28.022Z,97913.09
2023-12-19T20:10:30.387Z,97918.44
2023-12-19T20:15:32.600Z,97918.75
2023-12-19T20:20:34.539Z,97919.72
2023-12-19T20:25:36.442Z,97921.66
2023-12-19T20:30:38.612Z,97923.59
2023-12-19T20:35:41.260Z,97915.19
2023-12-19T20:40:43.279Z,97905.00
2023-12-19T20:45:46.541Z,97913.38
2023-12-19T20:50:48.813Z,97889.63
2023-12-19T20:55:50.802Z,97895.91
2023-12-19T21:01:05.517Z,97903.19
2023-12-19T21:06:13.104Z,97873.44
2023-12-19T21:11:15.064Z,97875.84
2023-12-19T21:16:17.055Z,97866.47
2023-12-19T21:21:19.115Z,97872.59
2023-12-19T21:26:21.135Z,97886.16
2023-12-19T21:31:24.218Z,97873.69
2023-12-19T21:36:26.172Z,97872.38
2023-12-19T21:41:28.650Z,97881.25
2023-12-19T21:46:31.734Z,97870.09
2023-12-19T21:51:38.151Z,97860.72
2023-12-19T21:56:40.727Z,97874.63
2023-12-19T22:01:46.712Z,97874.78
2023-12-19T22:06:49.374Z,97874.94
2023-12-19T22:11:52.903Z,97875.91
2023-12-19T22:16:55.003Z,97867.34
2023-12-19T22:21:58.208Z,97878.63
2023-12-19T22:27:02.232Z,97874.75
2023-12-19T22:32:04.612Z,97871.50
2023-12-19T22:37:06.906Z,97873.44
2023-12-19T22:42:09.165Z,97871.31
2023-12-19T22:47:11.466Z,97870.16
2023-12-19T22:52:13.436Z,97863.53
2023-12-19T22:57:15.442Z,97856.41
2023-12-19T23:02:17.788Z,97865.28
2023-12-19T23:07:20.030Z,97859.75
2023-12-19T23:12:22.123Z,97858.75
2023-12-19T23:17:24.441Z,97840.19
2023-12-19T23:22:27.183Z,97852.59
2023-12-19T23:27:31.462Z,97853.56
2023-12-19T23:32:34.810Z,97851.13
2023-12-19T23:37:37.153Z,97848.19
2023-12-19T23:42:39.652Z,97831.09
2023-12-19T23:47:41.793Z,97845.78
2023-12-19T23:53:10.529Z,97826.38
2023-12-19T23:58:12.660Z,97830.09
